Time;durP1;ratioP1;P1;durP2;ratioP2;P2;SDS_P1;SDS_P2;PMS_P1;PMS_P2;Temp;Humidity;BMP_temperature;BMP_pressure;BME280_temperature;BME280_humidity;BME280_pressure;Samples;Min_cycle;Max_cycle;Signal;HPM_P1;HPM_P2
2022/05/16 00:00:46;;;;;;;5.97;3.43;;;22.00;48.50;;;;;;5056069;28;20845;-67
2022/05/16 00:03:13;;;;;;;4.10;3.00;;;22.00;48.30;;;;;;5056032;28;20445;-68
2022/05/16 00:05:40;;;;;;;5.27;3.20;;;22.00;48.40;;;;;;5055778;28;20450;-68
2022/05/16 00:08:08;;;;;;;5.53;3.30;;;22.00;48.30;;;;;;5055362;28;20492;-68
2022/05/16 00:10:36;;;;;;;4.83;3.23;;;22.00;48.20;;;;;;5055501;28;20816;-68
2022/05/16 00:13:04;;;;;;;3.13;2.57;;;22.00;48.00;;;;;;5056386;28;20470;-68
2022/05/16 00:15:31;;;;;;;4.40;2.97;;;22.00;48.00;;;;;;5054961;28;20453;-68
2022/05/16 00:17:58;;;;;;;3.47;2.77;;;22.00;48.10;;;;;;5055093;28;20454;-68
2022/05/16 00:20:25;;;;;;;6.00;3.60;;;22.00;47.80;;;;;;5055132;28;20449;-68
2022/05/16 00:22:52;;;;;;;5.77;2.83;;;21.90;46.70;;;;;;5055906;28;20472;-69
2022/05/16 00:25:20;;;;;;;3.17;2.77;;;21.90;47.10;;;;;;5056446;28;20454;-67
2022/05/16 00:27:48;;;;;;;3.07;2.60;;;21.90;47.30;;;;;;5056507;28;20453;-69
2022/05/16 00:30:19;;;;;;;2.83;2.30;;;21.90;47.20;;;;;;5056020;28;20457;-67
2022/05/16 00:32:48;;;;;;;3.50;2.90;;;21.80;47.30;;;;;;5056659;28;20470;-66
2022/05/16 00:35:16;;;;;;;4.93;2.63;;;21.80;47.50;;;;;;5055886;28;20833;-67
2022/05/16 00:37:43;;;;;;;4.07;2.50;;;21.90;47.50;;;;;;5055709;28;20454;-67
2022/05/16 00:40:11;;;;;;;4.97;2.50;;;21.90;47.40;;;;;;5055360;28;20450;-68
2022/05/16 00:42:38;;;;;;;4.20;2.63;;;21.90;47.30;;;;;;5054478;28;20559;-68
2022/05/16 00:45:09;;;;;;;2.40;2.17;;;21.80;47.30;;;;;;5054836;28;20457;-67
2022/05/16 00:47:35;;;;;;;2.40;2.20;;;21.80;47.30;;;;;;5054916;28;20456;-68
2022/05/16 00:50:04;;;;;;;3.70;2.40;;;21.80;47.10;;;;;;5055191;28;20488;-68
2022/05/16 00:52:34;;;;;;;3.23;2.20;;;21.80;47.00;;;;;;5055929;28;20470;-70
2022/05/16 00:55:04;;;;;;;4.07;2.27;;;21.80;47.00;;;;;;5053767;28;20452;-72
2022/05/16 00:57:35;;;;;;;7.37;3.07;;;21.80;47.10;;;;;;5055003;28;20438;-72
2022/05/16 01:00:12;;;;;;;4.10;2.73;;;21.80;46.90;;;;;;5054485;28;20461;-71
2022/05/16 01:05:26;;;;;;;6.93;2.57;;;21.80;47.00;;;;;;5053564;28;20448;-72
2022/05/16 01:07:52;;;;;;;3.20;2.90;;;21.80;46.80;;;;;;5053708;28;20456;-71
2022/05/16 01:10:22;;;;;;;2.93;2.23;;;21.70;46.90;;;;;;5054038;28;20830;-71
2022/05/16 01:12:51;;;;;;;3.13;2.50;;;21.70;46.90;;;;;;5053961;28;20465;-72
2022/05/16 01:15:30;;;;;;;5.43;2.53;;;21.70;47.00;;;;;;5053312;28;20456;-72
2022/05/16 01:17:57;;;;;;;3.80;2.57;;;21.70;47.40;;;;;;5053702;28;20437;-72
2022/05/16 01:20:24;;;;;;;6.27;2.90;;;21.70;47.00;;;;;;5053689;28;20445;-72
2022/05/16 01:22:54;;;;;;;3.63;2.60;;;21.70;46.80;;;;;;5053200;28;20469;-72
2022/05/16 01:25:27;;;;;;;6.73;2.70;;;21.60;46.60;;;;;;5053449;28;20576;-71
2022/05/16 01:27:56;;;;;;;4.37;2.40;;;21.60;46.80;;;;;;5053171;28;20472;-71
2022/05/16 01:30:25;;;;;;;3.30;2.47;;;21.70;47.10;;;;;;5053520;28;20492;-71
2022/05/16 01:32:52;;;;;;;5.27;3.00;;;21.60;46.80;;;;;;5053409;28;20492;-71
2022/05/16 01:35:20;;;;;;;4.80;2.77;;;21.60;46.70;;;;;;5053389;28;20445;-72
2022/05/16 01:40:33;;;;;;;4.60;2.50;;;21.60;46.50;;;;;;5053349;28;20398;-71
2022/05/16 01:43:00;;;;;;;3.00;2.63;;;21.60;46.40;;;;;;5056860;28;20491;-72
2022/05/16 01:45:27;;;;;;;4.60;2.63;;;21.60;46.60;;;;;;5056937;28;20466;-72
2022/05/16 01:47:54;;;;;;;4.37;2.50;;;21.60;46.70;;;;;;5057482;28;20429;-71
2022/05/16 01:50:20;;;;;;;3.30;2.53;;;21.60;46.70;;;;;;5057155;28;20485;-72
2022/05/16 01:52:47;;;;;;;2.87;2.37;;;21.60;46.80;;;;;;5056974;28;20480;-71
2022/05/16 01:55:14;;;;;;;3.77;2.40;;;21.60;46.60;;;;;;5057148;28;20449;-71
2022/05/16 01:57:42;;;;;;;4.07;2.70;;;21.50;46.50;;;;;;5057043;28;20460;-71
2022/05/16 02:00:11;;;;;;;5.53;3.27;;;21.50;46.50;;;;;;5056881;28;20445;-71
2022/05/16 02:02:41;;;;;;;3.40;2.40;;;21.50;46.70;;;;;;5056707;28;20472;-72
2022/05/16 02:05:08;;;;;;;4.90;2.50;;;21.50;46.80;;;;;;5057003;28;20445;-72
2022/05/16 02:07:35;;;;;;;4.60;2.27;;;21.40;46.60;;;;;;5057643;28;20489;-72
2022/05/16 02:10:02;;;;;;;6.60;2.93;;;21.40;46.70;;;;;;5056981;28;20481;-71
2022/05/16 02:12:29;;;;;;;4.23;2.50;;;21.40;46.90;;;;;;5056891;28;20468;-71
2022/05/16 02:14:58;;;;;;;4.70;2.73;;;21.40;46.60;;;;;;5057608;28;20449;-72
2022/05/16 02:17:25;;;;;;;2.97;1.97;;;21.30;46.70;;;;;;5057511;28;20445;-71
2022/05/16 02:19:51;;;;;;;4.37;2.13;;;21.30;46.80;;;;;;5057782;28;20445;-71
2022/05/16 02:25:03;;;;;;;4.63;2.57;;;21.20;46.90;;;;;;5056874;28;20474;-72
2022/05/16 02:27:29;;;;;;;4.10;2.47;;;21.20;47.20;;;;;;5056283;28;21009;-71
2022/05/16 02:29:57;;;;;;;6.23;2.50;;;21.20;47.40;;;;;;5056746;28;20487;-71
2022/05/16 02:32:24;;;;;;;5.60;3.20;;;21.10;46.80;;;;;;5056808;28;20492;-72
2022/05/16 02:34:51;;;;;;;2.60;2.40;;;21.10;47.30;;;;;;5056711;28;20453;-72
2022/05/16 02:37:18;;;;;;;3.53;2.67;;;21.00;47.50;;;;;;5056484;28;20453;-72
2022/05/16 02:39:45;;;;;;;3.43;2.30;;;21.00;47.30;;;;;;5056369;28;20457;-71
2022/05/16 02:42:14;;;;;;;9.67;3.63;;;21.00;47.50;;;;;;5056266;28;20501;-71
2022/05/16 02:44:42;;;;;;;5.13;2.40;;;20.90;47.50;;;;;;5056002;28;20473;-72
2022/05/16 02:47:12;;;;;;;4.93;2.50;;;20.90;47.70;;;;;;5056031;28;20975;-71
2022/05/16 02:49:39;;;;;;;3.40;2.60;;;20.80;47.80;;;;;;5055782;28;21003;-71
2022/05/16 02:52:06;;;;;;;4.50;3.43;;;20.80;47.70;;;;;;5055850;28;20481;-71
2022/05/16 02:54:33;;;;;;;5.10;3.20;;;20.80;47.50;;;;;;5055698;28;20452;-71
2022/05/16 02:57:00;;;;;;;4.20;2.80;;;20.70;47.90;;;;;;5055698;28;20452;-71
2022/05/16 02:59:32;;;;;;;3.00;2.57;;;20.60;48.50;;;;;;5055951;28;20456;-71
2022/05/16 03:01:59;;;;;;;4.00;2.67;;;20.60;48.70;;;;;;5055971;28;20480;-71
2022/05/16 03:04:27;;;;;;;4.20;2.40;;;20.70;48.80;;;;;;5055639;28;20476;-71
2022/05/16 03:06:54;;;;;;;3.67;2.20;;;20.70;48.60;;;;;;5055856;28;20437;-71
2022/05/16 03:09:21;;;;;;;4.70;3.00;;;20.70;48.50;;;;;;5055479;28;20496;-71
2022/05/16 03:11:48;;;;;;;4.13;3.07;;;20.70;48.80;;;;;;5055556;28;20461;-72
2022/05/16 03:14:15;;;;;;;2.80;2.60;;;20.70;49.10;;;;;;5055732;28;20453;-72
2022/05/16 03:16:41;;;;;;;3.33;2.30;;;20.70;49.30;;;;;;5055551;28;20498;-72
2022/05/16 03:19:08;;;;;;;3.93;2.70;;;20.70;49.30;;;;;;5055581;28;20811;-72
2022/05/16 03:21:36;;;;;;;3.50;3.10;;;20.80;49.30;;;;;;5055508;28;20516;-72
2022/05/16 03:24:04;;;;;;;4.90;2.70;;;20.70;49.10;;;;;;5055602;28;20453;-72
2022/05/16 03:26:31;;;;;;;3.60;2.80;;;20.70;49.40;;;;;;5055429;28;20449;-72
2022/05/16 03:28:57;;;;;;;5.13;2.60;;;20.80;49.50;;;;;;5055376;28;20449;-72
2022/05/16 03:31:24;;;;;;;7.73;2.80;;;20.80;49.60;;;;;;5055556;28;20480;-72
2022/05/16 03:33:51;;;;;;;4.17;3.00;;;20.70;49.70;;;;;;5055236;28;20452;-72
2022/05/16 03:36:18;;;;;;;3.63;3.00;;;20.70;49.80;;;;;;5055146;28;20465;-72
2022/05/16 03:41:30;;;;;;;5.63;2.90;;;20.70;50.10;;;;;;5054941;28;20822;-72
2022/05/16 03:43:57;;;;;;;3.50;2.70;;;20.60;50.10;;;;;;5054966;28;20468;-72
2022/05/16 03:46:25;;;;;;;2.90;2.60;;;20.60;50.20;;;;;;5055134;28;20442;-72
2022/05/16 03:48:53;;;;;;;4.00;3.10;;;20.60;50.40;;;;;;5054738;28;20831;-72
2022/05/16 03:51:19;;;;;;;4.40;3.07;;;20.50;50.50;;;;;;5054904;28;20461;-72
2022/05/16 03:53:47;;;;;;;7.00;3.13;;;20.50;50.90;;;;;;5055021;28;20468;-72
2022/05/16 03:56:15;;;;;;;3.07;2.57;;;20.50;51.00;;;;;;5055060;28;20449;-72
2022/05/16 03:58:42;;;;;;;4.10;2.40;;;20.40;51.10;;;;;;5055326;28;20433;-72
2022/05/16 04:01:09;;;;;;;3.10;2.70;;;20.50;51.20;;;;;;5054538;28;20468;-72
2022/05/16 04:03:36;;;;;;;3.23;2.93;;;20.40;50.80;;;;;;5054610;28;20445;-72
2022/05/16 04:06:03;;;;;;;3.63;2.60;;;20.40;51.00;;;;;;5054143;28;20938;-72
2022/05/16 04:08:31;;;;;;;5.97;3.60;;;20.40;51.10;;;;;;5054823;28;20457;-72
2022/05/16 04:11:00;;;;;;;5.30;3.43;;;20.40;51.40;;;;;;5054268;28;21074;-72
2022/05/16 04:13:27;;;;;;;3.60;2.77;;;20.40;51.30;;;;;;5054868;28;20524;-71
2022/05/16 04:15:54;;;;;;;6.73;3.13;;;20.40;51.40;;;;;;5054765;28;20460;-71
2022/05/16 04:18:21;;;;;;;6.03;3.10;;;20.40;51.40;;;;;;5054648;28;20449;-71
2022/05/16 04:20:48;;;;;;;5.17;4.00;;;20.40;51.40;;;;;;5054405;28;20512;-72
2022/05/16 04:23:15;;;;;;;6.10;3.70;;;20.40;51.50;;;;;;5054656;28;20442;-72
2022/05/16 04:25:42;;;;;;;5.13;3.53;;;20.40;51.70;;;;;;5054736;28;20464;-72
2022/05/16 04:28:12;;;;;;;8.80;4.03;;;20.30;51.50;;;;;;5054331;28;20457;-71
2022/05/16 04:30:39;;;;;;;7.50;4.60;;;20.40;51.70;;;;;;5054426;28;20489;-71
2022/05/16 04:33:08;;;;;;;6.13;3.60;;;20.40;51.80;;;;;;5054537;28;20457;-72
2022/05/16 04:35:36;;;;;;;10.67;3.93;;;20.40;51.60;;;;;;5054667;28;20807;-72
2022/05/16 04:38:04;;;;;;;3.90;3.20;;;20.40;51.60;;;;;;5054623;28;20449;-72
2022/05/16 04:40:30;;;;;;;4.70;3.07;;;20.40;51.70;;;;;;5054910;28;20460;-71
2022/05/16 04:42:57;;;;;;;7.20;3.10;;;20.40;51.60;;;;;;5054255;28;20473;-71
2022/05/16 04:45:27;;;;;;;4.30;3.37;;;20.40;51.80;;;;;;5053393;28;20453;-71
2022/05/16 04:47:56;;;;;;;5.07;3.10;;;20.40;51.80;;;;;;5053884;28;20441;-71
2022/05/16 04:50:25;;;;;;;3.83;2.90;;;20.50;51.80;;;;;;5053654;28;21035;-71
2022/05/16 04:52:52;;;;;;;4.07;3.50;;;20.50;51.70;;;;;;5053828;28;21031;-71
2022/05/16 04:55:20;;;;;;;7.77;3.80;;;20.60;51.60;;;;;;5054230;28;20452;-71
2022/05/16 04:57:47;;;;;;;5.10;3.33;;;20.60;51.60;;;;;;5054359;28;20453;-70
2022/05/16 05:00:15;;;;;;;6.10;3.20;;;20.70;51.70;;;;;;5054166;28;20446;-71
2022/05/16 05:02:44;;;;;;;5.83;3.80;;;20.70;51.60;;;;;;5053499;28;20469;-71
2022/05/16 05:05:12;;;;;;;7.17;3.70;;;20.80;51.40;;;;;;5053310;28;21023;-71
2022/05/16 05:07:39;;;;;;;5.40;3.63;;;20.90;51.40;;;;;;5053416;28;20476;-71
2022/05/16 05:15:41;;;;;;;5.80;3.40;;;21.10;52.00;;;;;;5014913;28;20435;-71
2022/05/16 05:18:10;;;;;;;7.73;3.50;;;21.20;51.30;;;;;;5053306;28;20438;-71
2022/05/16 05:20:37;;;;;;;4.73;3.50;;;21.20;51.00;;;;;;5053395;28;20441;-71
2022/05/16 05:23:05;;;;;;;4.77;3.60;;;21.30;51.30;;;;;;5053192;28;20473;-70
2022/05/16 05:25:32;;;;;;;8.30;3.40;;;21.30;51.70;;;;;;5053644;28;20441;-71
2022/05/16 05:28:01;;;;;;;5.97;2.97;;;21.40;51.70;;;;;;5053334;28;20449;-71
2022/05/16 05:30:30;;;;;;;8.60;3.00;;;21.40;51.70;;;;;;5053513;28;20486;-71
2022/05/16 05:32:57;;;;;;;3.47;3.10;;;21.50;51.60;;;;;;5052922;28;20917;-70
2022/05/16 05:35:26;;;;;;;4.67;3.27;;;21.50;51.30;;;;;;5053208;28;20452;-71
2022/05/16 05:37:55;;;;;;;4.90;3.43;;;21.50;51.70;;;;;;5052931;28;20825;-71
2022/05/16 05:40:22;;;;;;;7.20;3.23;;;21.60;52.20;;;;;;5053225;28;20488;-71
2022/05/16 05:42:50;;;;;;;7.00;3.10;;;21.60;52.10;;;;;;5053081;28;20465;-71
2022/05/16 05:45:17;;;;;;;5.00;3.60;;;21.60;52.20;;;;;;5052806;28;20462;-71
2022/05/16 05:47:44;;;;;;;4.80;3.30;;;21.60;52.10;;;;;;5053077;28;20824;-71
2022/05/16 05:50:11;;;;;;;3.93;2.90;;;21.70;51.90;;;;;;5053079;28;20862;-71
2022/05/16 05:52:39;;;;;;;4.47;3.10;;;21.70;52.00;;;;;;5052994;28;20470;-71
2022/05/16 05:55:07;;;;;;;7.73;3.43;;;21.70;52.20;;;;;;5053274;28;20453;-71
2022/05/16 05:57:35;;;;;;;5.10;2.97;;;21.70;51.90;;;;;;5053024;28;20449;-71
2022/05/16 06:00:02;;;;;;;7.50;3.00;;;21.80;51.80;;;;;;5053918;28;20463;-71
2022/05/16 06:02:29;;;;;;;3.87;2.83;;;21.80;51.90;;;;;;5053188;28;20469;-71
2022/05/16 06:04:56;;;;;;;5.70;2.83;;;21.90;52.00;;;;;;5053156;28;20449;-71
2022/05/16 06:07:23;;;;;;;5.27;3.53;;;21.90;52.20;;;;;;5053171;28;20452;-71
2022/05/16 06:09:51;;;;;;;5.77;2.90;;;22.00;52.70;;;;;;5053296;28;20477;-71
2022/05/16 06:12:18;;;;;;;5.13;3.30;;;22.00;53.00;;;;;;5053075;28;20472;-71
2022/05/16 06:14:44;;;;;;;7.73;3.53;;;22.00;53.30;;;;;;5053171;28;20445;-71
2022/05/16 06:17:12;;;;;;;5.97;3.43;;;22.10;53.60;;;;;;5053203;28;20454;-71
2022/05/16 06:19:39;;;;;;;7.83;2.80;;;22.10;54.00;;;;;;5053101;28;20485;-71
2022/05/16 06:22:06;;;;;;;6.93;3.20;;;22.10;54.40;;;;;;5052914;28;20875;-71
2022/05/16 06:27:18;;;;;;;7.53;3.90;;;22.00;54.20;;;;;;5053689;28;20459;-71
2022/05/16 06:29:45;;;;;;;5.20;3.67;;;22.00;53.90;;;;;;5056378;28;20808;-71
2022/05/16 06:32:12;;;;;;;12.20;4.20;;;22.00;53.60;;;;;;5056405;28;20839;-71
2022/05/16 06:34:39;;;;;;;10.57;3.67;;;21.90;53.10;;;;;;5056402;28;20445;-71
2022/05/16 06:37:06;;;;;;;5.67;2.93;;;21.80;52.80;;;;;;5056353;28;20458;-71
2022/05/16 06:39:32;;;;;;;6.93;3.43;;;21.80;52.90;;;;;;5056339;28;20453;-71
2022/05/16 06:41:59;;;;;;;5.00;3.77;;;21.70;53.40;;;;;;5056131;28;20477;-71
2022/05/16 06:44:28;;;;;;;8.33;3.47;;;21.70;53.90;;;;;;5055504;28;20461;-71
2022/05/16 06:46:55;;;;;;;6.80;3.50;;;21.60;54.00;;;;;;5055956;28;20449;-71
2022/05/16 06:49:22;;;;;;;8.23;3.77;;;21.50;54.20;;;;;;5056375;28;20445;-71
2022/05/16 06:51:49;;;;;;;6.33;3.93;;;21.50;55.00;;;;;;5056542;28;20851;-72
2022/05/16 06:54:16;;;;;;;7.47;3.90;;;21.40;55.80;;;;;;5056079;28;20446;-70
2022/05/16 06:56:42;;;;;;;19.47;6.50;;;21.40;57.30;;;;;;5055597;28;20956;-70
2022/05/16 06:59:09;;;;;;;13.17;6.00;;;21.30;59.20;;;;;;5056359;28;20461;-71
2022/05/16 07:01:38;;;;;;;12.73;5.60;;;21.20;61.30;;;;;;5056118;28;20484;-71
2022/05/16 07:04:05;;;;;;;9.60;5.90;;;21.10;64.20;;;;;;5056138;28;20461;-72
2022/05/16 07:06:32;;;;;;;8.37;4.97;;;21.10;67.20;;;;;;5056172;28;20450;-72
2022/05/16 07:08:58;;;;;;;8.13;5.40;;;21.00;70.40;;;;;;5056261;28;20460;-72
2022/05/16 07:11:25;;;;;;;11.17;4.97;;;21.00;71.00;;;;;;5056169;28;20493;-72
2022/05/16 07:13:52;;;;;;;9.17;5.97;;;20.90;71.00;;;;;;5055824;28;20949;-72
2022/05/16 07:16:19;;;;;;;13.20;5.73;;;20.90;73.80;;;;;;5056461;28;20464;-72
2022/05/16 07:18:47;;;;;;;11.77;6.37;;;20.90;75.70;;;;;;5055970;28;20949;-72
2022/05/16 07:21:14;;;;;;;9.57;7.10;;;20.80;76.90;;;;;;5055929;28;20536;-72
2022/05/16 07:23:40;;;;;;;8.80;5.27;;;20.80;78.20;;;;;;5055815;28;20458;-72
2022/05/16 07:28:54;;;;;;;11.30;6.20;;;20.80;79.20;;;;;;5038310;28;20436;-72
2022/05/16 07:31:21;;;;;;;11.00;6.50;;;20.80;79.70;;;;;;5055426;28;20496;-71
2022/05/16 07:33:49;;;;;;;12.80;6.33;;;20.70;81.70;;;;;;5055639;28;20457;-72
2022/05/16 07:36:16;;;;;;;9.60;7.00;;;20.70;81.90;;;;;;5055392;28;20852;-71
2022/05/16 07:38:43;;;;;;;9.07;5.97;;;20.70;82.50;;;;;;5054297;28;20450;-72
2022/05/16 07:41:10;;;;;;;15.50;6.73;;;20.70;84.00;;;;;;5055475;28;20544;-72
2022/05/16 07:43:37;;;;;;;10.60;6.70;;;20.70;84.80;;;;;;5055250;28;20462;-71
2022/05/16 07:46:04;;;;;;;8.80;6.30;;;20.70;85.10;;;;;;5055267;28;20478;-72
2022/05/16 07:48:31;;;;;;;8.83;7.10;;;20.70;85.90;;;;;;5055164;28;20445;-72
2022/05/16 07:50:59;;;;;;;11.53;5.50;;;20.80;86.30;;;;;;5054893;28;20855;-72
2022/05/16 07:53:26;;;;;;;9.37;6.70;;;20.80;86.90;;;;;;5054650;28;20446;-72
2022/05/16 07:55:55;;;;;;;8.90;6.10;;;20.90;86.00;;;;;;5054934;28;20441;-72
2022/05/16 07:58:23;;;;;;;7.80;6.67;;;21.00;86.70;;;;;;5054836;28;20964;-72
2022/05/16 08:00:50;;;;;;;9.27;6.03;;;21.00;86.90;;;;;;5054946;28;20515;-72
2022/05/16 08:03:19;;;;;;;10.50;6.60;;;21.10;87.00;;;;;;5056046;28;20472;-71
2022/05/16 08:05:46;;;;;;;11.17;6.00;;;21.20;87.10;;;;;;5054565;28;20445;-71
2022/05/16 08:11:01;;;;;;;9.73;6.40;;;21.50;85.60;;;;;;5054379;28;20540;-71
2022/05/16 08:13:28;;;;;;;13.13;7.40;;;21.60;84.80;;;;;;5054671;28;20560;-71
2022/05/16 08:15:55;;;;;;;12.43;7.00;;;21.70;84.10;;;;;;5054380;28;20936;-71
2022/05/16 08:18:22;;;;;;;12.30;7.10;;;21.80;84.10;;;;;;5054274;28;20464;-71
2022/05/16 08:20:51;;;;;;;8.50;6.73;;;21.80;83.20;;;;;;5054536;28;20448;-72
2022/05/16 08:23:22;;;;;;;9.47;6.40;;;21.90;82.60;;;;;;5054442;28;20449;-72
2022/05/16 08:25:49;;;;;;;9.57;6.47;;;21.90;81.30;;;;;;5055217;28;20470;-72
2022/05/16 08:28:17;;;;;;;7.43;6.20;;;22.00;81.20;;;;;;5054009;28;20960;-72
2022/05/16 08:30:44;;;;;;;8.73;6.43;;;22.10;81.00;;;;;;5054010;28;20488;-72
2022/05/16 08:33:11;;;;;;;10.53;5.80;;;22.10;80.10;;;;;;5054276;28;20453;-71
2022/05/16 08:35:39;;;;;;;7.70;5.50;;;22.30;79.50;;;;;;5054229;28;20449;-71
2022/05/16 08:40:56;;;;;;;8.83;5.43;;;22.90;76.40;;;;;;5054256;28;20452;-71
2022/05/16 08:43:48;;;;;;;9.37;5.93;;;23.40;75.30;;;;;;5054454;28;20477;-71
2022/05/16 08:46:27;;;;;;;7.83;4.97;;;23.90;74.00;;;;;;5053998;28;20440;-71
2022/05/16 08:48:58;;;;;;;7.37;4.80;;;24.40;71.40;;;;;;5054066;28;20429;-71
2022/05/16 08:51:27;;;;;;;10.23;6.07;;;24.90;69.90;;;;;;5053950;28;20587;-72
2022/05/16 08:54:05;;;;;;;8.00;5.40;;;25.40;67.40;;;;;;5054519;28;20454;-70
2022/05/16 08:56:37;;;;;;;6.77;5.70;;;25.70;65.20;;;;;;5055056;28;20434;-70
2022/05/16 08:59:07;;;;;;;7.00;5.40;;;26.10;62.50;;;;;;5053844;28;20534;-70
2022/05/16 09:01:38;;;;;;;7.60;6.13;;;26.40;60.80;;;;;;5053735;28;20519;-70
2022/05/16 09:04:12;;;;;;;9.40;4.83;;;26.70;60.50;;;;;;5056136;28;20469;-70
2022/05/16 09:06:45;;;;;;;7.93;5.00;;;27.00;60.20;;;;;;5055507;28;20434;-70
2022/05/16 09:09:15;;;;;;;10.90;5.03;;;27.30;59.60;;;;;;5053948;28;20430;-70
2022/05/16 09:11:55;;;;;;;7.77;5.90;;;27.60;59.00;;;;;;5053236;28;21003;-70
2022/05/16 09:14:37;;;;;;;9.20;7.43;;;27.90;57.50;;;;;;5053229;28;20960;-70
2022/05/16 09:17:10;;;;;;;11.27;5.63;;;28.00;55.70;;;;;;5053218;28;20786;-70
2022/05/16 09:20:05;;;;;;;10.37;5.07;;;28.10;54.70;;;;;;5053510;28;20437;-70
2022/05/16 09:22:36;;;;;;;10.50;6.00;;;28.30;55.30;;;;;;5053497;28;20468;-70
2022/05/16 09:25:10;;;;;;;10.37;6.03;;;28.50;52.50;;;;;;5053744;28;20520;-70
2022/05/16 09:30:27;;;;;;;9.53;5.90;;;28.90;50.70;;;;;;5054579;28;20408;-70
2022/05/16 09:32:59;;;;;;;5.33;3.70;;;29.10;48.90;;;;;;5053591;28;20895;-70
2022/05/16 09:35:35;;;;;;;6.07;4.40;;;29.20;49.10;;;;;;5054066;28;20437;-71
2022/05/16 09:38:02;;;;;;;8.70;5.30;;;29.60;49.70;;;;;;5054461;28;20437;-71
2022/05/16 09:40:35;;;;;;;8.47;5.20;;;29.90;47.80;;;;;;5054332;28;20426;-71
2022/05/16 09:43:08;;;;;;;6.33;5.10;;;30.20;46.50;;;;;;5053351;28;20993;-71
2022/05/16 09:45:36;;;;;;;7.70;4.57;;;30.50;46.30;;;;;;5054084;28;20456;-71
2022/05/16 09:48:17;;;;;;;5.60;4.17;;;30.90;46.50;;;;;;5053732;28;20456;-71
2022/05/16 09:50:57;;;;;;;6.93;3.67;;;31.30;46.90;;;;;;5053266;28;20437;-71
2022/05/16 09:53:31;;;;;;;4.67;3.87;;;31.80;47.10;;;;;;5053511;28;20433;-71
2022/05/16 09:56:03;;;;;;;6.87;5.23;;;32.30;45.70;;;;;;5053692;28;20433;-71
2022/05/16 09:58:38;;;;;;;7.70;5.07;;;32.70;45.50;;;;;;5053368;28;20813;-71
2022/05/16 10:01:07;;;;;;;7.00;4.17;;;33.20;43.80;;;;;;5054447;28;20469;-71
2022/05/16 10:03:36;;;;;;;6.57;4.63;;;33.70;42.30;;;;;;5058509;28;20426;-71
2022/05/16 10:06:06;;;;;;;5.80;3.73;;;34.10;38.50;;;;;;5059609;28;20457;-71
2022/05/16 10:08:42;;;;;;;4.23;3.13;;;34.60;35.40;;;;;;5058565;28;20459;-71
2022/05/16 10:11:13;;;;;;;5.70;4.17;;;35.00;34.20;;;;;;5057351;28;20598;-71
2022/05/16 10:13:41;;;;;;;4.30;3.37;;;35.40;35.20;;;;;;5056995;28;20452;-71
2022/05/16 10:16:10;;;;;;;6.20;3.53;;;35.70;35.90;;;;;;5057289;28;20456;-71
2022/05/16 10:18:40;;;;;;;7.37;3.97;;;35.90;33.30;;;;;;5056849;28;20892;-72
2022/05/16 10:21:16;;;;;;;5.40;3.40;;;36.10;32.70;;;;;;5056975;28;20468;-71
2022/05/16 10:23:45;;;;;;;8.33;3.37;;;36.40;31.60;;;;;;5056950;28;20464;-72
2022/05/16 10:26:17;;;;;;;7.87;3.37;;;36.70;31.10;;;;;;5056741;28;20445;-71
2022/05/16 10:28:51;;;;;;;3.90;2.87;;;37.20;32.00;;;;;;5056947;28;20199;-71
2022/05/16 10:34:10;;;;;;;7.82;3.00;;;38.10;27.00;;;;;;5057536;28;20264;-71
2022/05/16 10:36:38;;;;;;;6.60;4.10;;;38.20;27.40;;;;;;5057247;28;20190;-72
2022/05/16 10:39:07;;;;;;;8.43;3.40;;;38.20;27.20;;;;;;5056870;28;20206;-71
2022/05/16 10:41:37;;;;;;;5.55;3.65;;;38.50;27.30;;;;;;5056434;28;20340;-71
2022/05/16 10:44:17;;;;;;;6.32;2.90;;;39.10;28.00;;;;;;5056555;28;20210;-71
2022/05/16 10:47:00;;;;;;;7.45;3.60;;;39.70;25.80;;;;;;5056601;28;20206;-71
2022/05/16 10:49:32;;;;;;;6.93;2.63;;;40.20;25.60;;;;;;5056640;28;20191;-72
2022/05/16 10:52:11;;;;;;;11.70;3.35;;;40.50;25.50;;;;;;5056508;28;20226;-72
2022/05/16 10:54:37;;;;;;;8.45;2.97;;;40.70;25.20;;;;;;5056210;28;20197;-72
2022/05/16 10:57:16;;;;;;;9.93;3.35;;;40.30;25.10;;;;;;5056177;28;20202;-72
2022/05/16 11:00:11;;;;;;;7.47;3.13;;;39.30;25.20;;;;;;5056169;28;20187;-72
2022/05/16 11:03:19;;;;;;;14.88;3.63;;;38.10;26.60;;;;;;5053611;28;20291;-72
2022/05/16 11:06:05;;;;;;;12.10;3.50;;;36.90;28.20;;;;;;5056153;28;20206;-72
2022/05/16 11:08:45;;;;;;;18.47;4.50;;;35.30;30.60;;;;;;5056344;28;20429;-71
2022/05/16 11:11:25;;;;;;;20.73;4.20;;;34.00;32.50;;;;;;5055381;28;20469;-71
2022/05/16 11:13:57;;;;;;;9.77;4.17;;;33.20;34.20;;;;;;5054311;28;20466;-71
2022/05/16 11:16:32;;;;;;;13.90;4.20;;;32.60;35.50;;;;;;5055789;28;20433;-72
2022/05/16 11:19:19;;;;;;;13.30;4.50;;;32.40;37.80;;;;;;5055598;28;20469;-72
2022/05/16 11:21:51;;;;;;;7.63;4.30;;;32.10;38.10;;;;;;5055686;28;20460;-71
2022/05/16 11:24:30;;;;;;;5.20;3.17;;;32.10;38.30;;;;;;5055964;28;20441;-72
2022/05/16 11:27:04;;;;;;;9.90;3.77;;;32.20;37.40;;;;;;5055758;28;20429;-71
2022/05/16 11:29:39;;;;;;;8.60;3.10;;;32.40;38.00;;;;;;5055411;28;20932;-71
2022/05/16 11:32:23;;;;;;;10.20;4.00;;;32.70;36.40;;;;;;5056059;28;20524;-71
2022/05/16 11:34:57;;;;;;;9.90;4.30;;;32.90;35.10;;;;;;5055926;28;20445;-71
2022/05/16 11:37:37;;;;;;;8.67;4.10;;;32.10;36.50;;;;;;5055317;28;20444;-71
2022/05/16 11:40:10;;;;;;;9.83;3.90;;;31.70;38.10;;;;;;5055434;28;20433;-71
2022/05/16 11:42:44;;;;;;;9.63;4.90;;;31.50;38.90;;;;;;5055199;28;20472;-71
2022/05/16 11:45:37;;;;;;;5.93;4.23;;;31.40;39.00;;;;;;5054770;28;20811;-72
2022/05/16 11:48:23;;;;;;;6.20;4.00;;;31.70;38.90;;;;;;5055096;28;20460;-71
2022/05/16 11:50:59;;;;;;;9.60;4.40;;;32.10;39.80;;;;;;5055130;28;20468;-72
2022/05/16 11:53:44;;;;;;;6.00;4.10;;;32.20;38.10;;;;;;5055014;28;20832;-72
2022/05/16 12:02:19;;;;;;;7.23;3.90;;;32.40;38.70;;;;;;5054881;28;20444;-71
2022/05/16 12:04:49;;;;;;;13.27;4.33;;;32.10;40.20;;;;;;5054919;28;20460;-71
2022/05/16 12:07:24;;;;;;;6.57;4.70;;;31.80;40.40;;;;;;5054789;28;20441;-71
2022/05/16 12:09:57;;;;;;;7.93;5.10;;;31.40;41.20;;;;;;5055146;28;20441;-71
2022/05/16 12:12:35;;;;;;;12.37;4.37;;;30.90;42.60;;;;;;5054430;28;21023;-72
2022/05/16 12:15:27;;;;;;;8.30;5.03;;;30.60;43.30;;;;;;5054707;28;20433;-71
2022/05/16 12:17:56;;;;;;;8.80;5.20;;;30.20;45.00;;;;;;5052172;28;20466;-71
2022/05/16 12:21:05;;;;;;;8.50;5.40;;;29.90;45.90;;;;;;5054679;28;20445;-71
2022/05/16 12:24:04;;;;;;;7.30;5.87;;;30.00;45.50;;;;;;4993242;28;20452;-71
2022/05/16 12:26:50;;;;;;;7.73;5.50;;;30.00;45.70;;;;;;5048737;28;20494;-71
2022/05/16 12:29:21;;;;;;;5.57;5.00;;;30.20;44.80;;;;;;5054843;28;20935;-71
2022/05/16 12:31:52;;;;;;;6.03;5.43;;;30.50;44.80;;;;;;5054792;28;20525;-72
2022/05/16 12:34:42;;;;;;;7.70;5.80;;;30.90;42.30;;;;;;5055038;28;20471;-71
2022/05/16 12:37:13;;;;;;;12.87;6.27;;;31.10;42.70;;;;;;5054772;28;20456;-71
2022/05/16 12:39:46;;;;;;;17.90;5.97;;;31.20;43.70;;;;;;5054344;28;20422;-71
2022/05/16 12:42:33;;;;;;;9.60;6.40;;;31.50;43.50;;;;;;5053922;28;20472;-71
2022/05/16 12:45:02;;;;;;;14.27;6.20;;;31.40;41.60;;;;;;5053839;28;20449;-72
2022/05/16 12:47:58;;;;;;;10.60;6.60;;;31.60;42.70;;;;;;5054281;28;20477;-71
2022/05/16 12:51:04;;;;;;;15.20;6.47;;;31.90;41.70;;;;;;5053863;28;20438;-72
2022/05/16 12:54:09;;;;;;;14.07;6.70;;;31.90;41.50;;;;;;5038312;28;20507;-72
2022/05/16 12:56:45;;;;;;;9.53;6.40;;;31.60;42.40;;;;;;5054167;28;20456;-72
2022/05/16 12:59:25;;;;;;;10.03;6.87;;;31.40;43.00;;;;;;5053643;28;20437;-71
2022/05/16 13:02:01;;;;;;;6.90;6.20;;;31.30;42.50;;;;;;5054792;28;20469;-71
2022/05/16 13:04:41;;;;;;;7.80;6.77;;;31.20;43.00;;;;;;5054623;28;20842;-71
2022/05/16 13:07:13;;;;;;;9.50;7.00;;;31.10;43.00;;;;;;5052625;28;20473;-72
2022/05/16 13:09:51;;;;;;;10.33;6.77;;;31.30;43.60;;;;;;5054681;28;20437;-71
2022/05/16 13:12:36;;;;;;;7.50;6.80;;;31.20;43.30;;;;;;5054111;28;20489;-71
2022/05/16 13:15:09;;;;;;;13.87;7.30;;;30.60;43.60;;;;;;5054079;28;20440;-71
2022/05/16 13:17:40;;;;;;;7.43;6.70;;;29.90;45.10;;;;;;5054440;28;20429;-72
2022/05/16 13:20:11;;;;;;;13.40;6.90;;;29.70;47.60;;;;;;5055126;28;20808;-71
2022/05/16 13:22:42;;;;;;;11.67;7.27;;;29.50;46.50;;;;;;5054247;28;20474;-71
2022/05/16 13:25:11;;;;;;;6.70;5.80;;;29.80;46.10;;;;;;5053865;28;20442;-71
2022/05/16 13:30:25;;;;;;;8.73;7.17;;;30.60;45.30;;;;;;5053998;28;20446;-72
2022/05/16 13:32:52;;;;;;;9.20;6.70;;;30.70;44.50;;;;;;5054037;28;20497;-72
2022/05/16 13:35:29;;;;;;;11.50;7.77;;;30.90;44.50;;;;;;5054165;28;20822;-72
2022/05/16 13:37:57;;;;;;;7.20;6.50;;;30.90;43.80;;;;;;5056059;28;20440;-72
2022/05/16 13:40:28;;;;;;;10.67;8.20;;;30.80;44.10;;;;;;5058094;28;20480;-72
2022/05/16 13:42:55;;;;;;;10.33;7.20;;;30.60;44.80;;;;;;5058046;28;20469;-72
2022/05/16 13:45:24;;;;;;;8.70;7.80;;;30.50;44.70;;;;;;5057791;28;20465;-72